sensor_id;sensor_type;location;lat;lon;timestamp;temperature;humidity
23507;DHT22;11930;53.076;18.250;2023-06-14T00:00:52;14.30;99.90
23507;DHT22;11930;53.076;18.250;2023-06-14T00:03:38;14.30;99.90
23507;DHT22;11930;53.076;18.250;2023-06-14T00:06:04;14.30;99.90
23507;DHT22;11930;53.076;18.250;2023-06-14T00:08:31;14.30;99.90
23507;DHT22;11930;53.076;18.250;2023-06-14T00:10:56;14.20;99.90
23507;DHT22;11930;53.076;18.250;2023-06-14T00:13:23;14.20;99.90
23507;DHT22;11930;53.076;18.250;2023-06-14T00:15:49;14.20;99.90
23507;DHT22;11930;53.076;18.250;2023-06-14T00:18:15;14.20;99.90
23507;DHT22;11930;53.076;18.250;2023-06-14T00:20:42;14.20;99.90
23507;DHT22;11930;53.076;18.250;2023-06-14T00:23:08;14.20;99.90
23507;DHT22;11930;53.076;18.250;2023-06-14T00:25:34;14.20;99.90
23507;DHT22;11930;53.076;18.250;2023-06-14T00:28:01;14.10;99.90
23507;DHT22;11930;53.076;18.250;2023-06-14T00:30:27;14.10;99.90
23507;DHT22;11930;53.076;18.250;2023-06-14T00:32:56;14.10;99.90
23507;DHT22;11930;53.076;18.250;2023-06-14T00:35:25;14.10;99.90
23507;DHT22;11930;53.076;18.250;2023-06-14T00:37:51;14.00;99.90
23507;DHT22;11930;53.076;18.250;2023-06-14T00:40:17;14.00;99.90
23507;DHT22;11930;53.076;18.250;2023-06-14T00:42:45;14.00;99.90
23507;DHT22;11930;53.076;18.250;2023-06-14T00:45:11;14.00;99.90
23507;DHT22;11930;53.076;18.250;2023-06-14T00:47:38;13.90;99.90
23507;DHT22;11930;53.076;18.250;2023-06-14T00:50:09;13.90;99.90
23507;DHT22;11930;53.076;18.250;2023-06-14T00:52:36;13.90;99.90
23507;DHT22;11930;53.076;18.250;2023-06-14T00:55:02;13.90;99.90
23507;DHT22;11930;53.076;18.250;2023-06-14T00:57:29;13.80;99.90
23507;DHT22;11930;53.076;18.250;2023-06-14T00:59:55;13.80;99.90
23507;DHT22;11930;53.076;18.250;2023-06-14T01:02:22;13.70;99.90
23507;DHT22;11930;53.076;18.250;2023-06-14T01:04:49;13.70;99.90
23507;DHT22;11930;53.076;18.250;2023-06-14T01:07:28;13.70;99.90
23507;DHT22;11930;53.076;18.250;2023-06-14T01:15:00;13.50;99.90
23507;DHT22;11930;53.076;18.250;2023-06-14T01:17:27;13.50;99.90
23507;DHT22;11930;53.076;18.250;2023-06-14T01:20:00;13.50;99.90
23507;DHT22;11930;53.076;18.250;2023-06-14T01:22:28;13.50;99.90
23507;DHT22;11930;53.076;18.250;2023-06-14T01:24:55;13.40;99.90
23507;DHT22;11930;53.076;18.250;2023-06-14T01:27:25;13.40;99.90
23507;DHT22;11930;53.076;18.250;2023-06-14T01:29:55;13.40;99.90
23507;DHT22;11930;53.076;18.250;2023-06-14T01:32:26;13.40;99.90
23507;DHT22;11930;53.076;18.250;2023-06-14T01:34:56;13.40;99.90
23507;DHT22;11930;53.076;18.250;2023-06-14T01:37:22;13.40;99.90
23507;DHT22;11930;53.076;18.250;2023-06-14T01:39:48;13.40;99.90
23507;DHT22;11930;53.076;18.250;2023-06-14T01:42:19;13.30;99.90
23507;DHT22;11930;53.076;18.250;2023-06-14T01:44:46;13.30;99.90
23507;DHT22;11930;53.076;18.250;2023-06-14T01:47:14;13.30;99.90
23507;DHT22;11930;53.076;18.250;2023-06-14T01:49:42;13.30;99.90
23507;DHT22;11930;53.076;18.250;2023-06-14T01:52:10;13.30;99.90
23507;DHT22;11930;53.076;18.250;2023-06-14T01:54:36;13.20;99.90
23507;DHT22;11930;53.076;18.250;2023-06-14T01:57:08;13.20;99.90
23507;DHT22;11930;53.076;18.250;2023-06-14T01:59:34;13.20;99.90
23507;DHT22;11930;53.076;18.250;2023-06-14T02:02:02;13.20;99.90
23507;DHT22;11930;53.076;18.250;2023-06-14T02:04:31;13.20;99.90
23507;DHT22;11930;53.076;18.250;2023-06-14T02:06:57;13.20;99.90
23507;DHT22;11930;53.076;18.250;2023-06-14T02:09:23;13.20;99.90
23507;DHT22;11930;53.076;18.250;2023-06-14T02:11:49;13.20;99.90
23507;DHT22;11930;53.076;18.250;2023-06-14T02:14:15;13.10;99.90
23507;DHT22;11930;53.076;18.250;2023-06-14T02:16:43;13.10;99.90
23507;DHT22;11930;53.076;18.250;2023-06-14T02:19:18;13.10;99.90
23507;DHT22;11930;53.076;18.250;2023-06-14T02:21:45;13.10;99.90
23507;DHT22;11930;53.076;18.250;2023-06-14T02:24:13;13.10;99.90
23507;DHT22;11930;53.076;18.250;2023-06-14T02:26:39;13.00;99.90
23507;DHT22;11930;53.076;18.250;2023-06-14T02:29:07;13.00;99.90
23507;DHT22;11930;53.076;18.250;2023-06-14T02:31:37;13.00;99.90
23507;DHT22;11930;53.076;18.250;2023-06-14T02:34:03;13.00;99.90
23507;DHT22;11930;53.076;18.250;2023-06-14T02:36:30;13.10;99.90
23507;DHT22;11930;53.076;18.250;2023-06-14T02:38:56;13.10;99.90
23507;DHT22;11930;53.076;18.250;2023-06-14T02:41:26;13.10;99.90
23507;DHT22;11930;53.076;18.250;2023-06-14T02:43:53;13.10;99.90
23507;DHT22;11930;53.076;18.250;2023-06-14T02:46:19;13.10;99.90
23507;DHT22;11930;53.076;18.250;2023-06-14T02:48:51;13.10;99.90
23507;DHT22;11930;53.076;18.250;2023-06-14T02:51:17;13.10;99.90
23507;DHT22;11930;53.076;18.250;2023-06-14T02:53:43;13.10;99.90
23507;DHT22;11930;53.076;18.250;2023-06-14T02:56:10;13.20;99.90
23507;DHT22;11930;53.076;18.250;2023-06-14T02:58:38;13.20;99.90
23507;DHT22;11930;53.076;18.250;2023-06-14T03:01:05;13.20;99.90
23507;DHT22;11930;53.076;18.250;2023-06-14T03:03:33;13.20;99.90
23507;DHT22;11930;53.076;18.250;2023-06-14T03:06:00;13.20;99.90
23507;DHT22;11930;53.076;18.250;2023-06-14T03:08:31;13.20;99.90
23507;DHT22;11930;53.076;18.250;2023-06-14T03:11:08;13.20;99.90
23507;DHT22;11930;53.076;18.250;2023-06-14T03:13:35;13.20;99.90
23507;DHT22;11930;53.076;18.250;2023-06-14T03:16:03;13.20;99.90
23507;DHT22;11930;53.076;18.250;2023-06-14T03:18:32;13.20;99.90
23507;DHT22;11930;53.076;18.250;2023-06-14T03:21:02;13.20;99.90
23507;DHT22;11930;53.076;18.250;2023-06-14T03:23:30;13.20;99.90
23507;DHT22;11930;53.076;18.250;2023-06-14T03:25:57;13.20;99.90
23507;DHT22;11930;53.076;18.250;2023-06-14T03:28:23;13.20;99.90
23507;DHT22;11930;53.076;18.250;2023-06-14T03:30:50;13.20;99.90
23507;DHT22;11930;53.076;18.250;2023-06-14T03:33:17;13.20;99.90
23507;DHT22;11930;53.076;18.250;2023-06-14T03:35:43;13.20;99.90
23507;DHT22;11930;53.076;18.250;2023-06-14T03:38:10;13.20;99.90
23507;DHT22;11930;53.076;18.250;2023-06-14T03:40:36;13.20;99.90
23507;DHT22;11930;53.076;18.250;2023-06-14T03:43:04;13.20;99.90
23507;DHT22;11930;53.076;18.250;2023-06-14T03:45:30;13.20;99.90
23507;DHT22;11930;53.076;18.250;2023-06-14T03:47:57;13.20;99.90
23507;DHT22;11930;53.076;18.250;2023-06-14T03:50:24;13.20;99.90
23507;DHT22;11930;53.076;18.250;2023-06-14T03:52:51;13.20;99.90
23507;DHT22;11930;53.076;18.250;2023-06-14T03:55:18;13.20;99.90
23507;DHT22;11930;53.076;18.250;2023-06-14T03:57:44;13.30;99.90
23507;DHT22;11930;53.076;18.250;2023-06-14T04:00:14;13.20;99.90
23507;DHT22;11930;53.076;18.250;2023-06-14T04:02:41;13.30;99.90
23507;DHT22;11930;53.076;18.250;2023-06-14T04:05:09;13.30;99.90
23507;DHT22;11930;53.076;18.250;2023-06-14T04:07:37;13.30;99.90
23507;DHT22;11930;53.076;18.250;2023-06-14T04:10:07;13.20;99.90
23507;DHT22;11930;53.076;18.250;2023-06-14T04:12:33;13.20;99.90
23507;DHT22;11930;53.076;18.250;2023-06-14T04:15:00;13.20;99.90
23507;DHT22;11930;53.076;18.250;2023-06-14T04:17:28;13.20;99.90
23507;DHT22;11930;53.076;18.250;2023-06-14T04:19:55;13.20;99.90
23507;DHT22;11930;53.076;18.250;2023-06-14T04:22:21;13.20;99.90
23507;DHT22;11930;53.076;18.250;2023-06-14T04:24:47;13.20;99.90
23507;DHT22;11930;53.076;18.250;2023-06-14T04:27:15;13.20;99.90
23507;DHT22;11930;53.076;18.250;2023-06-14T04:29:47;13.20;99.90
23507;DHT22;11930;53.076;18.250;2023-06-14T04:32:19;13.20;99.90
23507;DHT22;11930;53.076;18.250;2023-06-14T04:34:45;13.30;99.90
23507;DHT22;11930;53.076;18.250;2023-06-14T04:37:11;13.30;99.90
23507;DHT22;11930;53.076;18.250;2023-06-14T04:39:41;13.40;99.90
23507;DHT22;11930;53.076;18.250;2023-06-14T04:42:08;13.60;99.90
23507;DHT22;11930;53.076;18.250;2023-06-14T04:44:37;13.70;99.90
23507;DHT22;11930;53.076;18.250;2023-06-14T04:47:06;13.80;99.90
23507;DHT22;11930;53.076;18.250;2023-06-14T04:49:32;14.00;99.90
23507;DHT22;11930;53.076;18.250;2023-06-14T04:52:00;14.10;99.90
23507;DHT22;11930;53.076;18.250;2023-06-14T04:54:47;14.20;99.90
23507;DHT22;11930;53.076;18.250;2023-06-14T04:57:19;14.30;99.90
23507;DHT22;11930;53.076;18.250;2023-06-14T04:59:49;14.40;99.90
23507;DHT22;11930;53.076;18.250;2023-06-14T05:02:22;14.50;99.90
23507;DHT22;11930;53.076;18.250;2023-06-14T05:04:50;14.70;99.90
23507;DHT22;11930;53.076;18.250;2023-06-14T05:07:16;14.90;99.90
23507;DHT22;11930;53.076;18.250;2023-06-14T05:09:43;15.00;99.90
23507;DHT22;11930;53.076;18.250;2023-06-14T05:12:10;15.20;99.90
23507;DHT22;11930;53.076;18.250;2023-06-14T05:14:37;15.30;99.90
23507;DHT22;11930;53.076;18.250;2023-06-14T05:17:04;15.40;99.90
23507;DHT22;11930;53.076;18.250;2023-06-14T05:19:31;15.60;99.90
23507;DHT22;11930;53.076;18.250;2023-06-14T05:21:57;15.60;99.90
23507;DHT22;11930;53.076;18.250;2023-06-14T05:24:23;15.60;99.90
23507;DHT22;11930;53.076;18.250;2023-06-14T05:26:49;15.60;99.90
23507;DHT22;11930;53.076;18.250;2023-06-14T05:29:15;15.60;99.90
23507;DHT22;11930;53.076;18.250;2023-06-14T05:31:41;15.60;99.90
23507;DHT22;11930;53.076;18.250;2023-06-14T05:34:07;15.70;99.90
23507;DHT22;11930;53.076;18.250;2023-06-14T05:36:33;15.70;99.90
23507;DHT22;11930;53.076;18.250;2023-06-14T05:39:01;15.80;99.90
23507;DHT22;11930;53.076;18.250;2023-06-14T05:41:29;15.90;99.90
23507;DHT22;11930;53.076;18.250;2023-06-14T05:43:56;16.00;99.90
23507;DHT22;11930;53.076;18.250;2023-06-14T05:46:23;16.20;99.90
23507;DHT22;11930;53.076;18.250;2023-06-14T05:48:52;16.30;99.90
23507;DHT22;11930;53.076;18.250;2023-06-14T05:51:18;16.40;99.90
23507;DHT22;11930;53.076;18.250;2023-06-14T05:53:46;16.50;99.90
23507;DHT22;11930;53.076;18.250;2023-06-14T05:56:12;16.70;99.90
23507;DHT22;11930;53.076;18.250;2023-06-14T05:58:39;16.80;99.90
23507;DHT22;11930;53.076;18.250;2023-06-14T06:01:05;17.00;99.90
23507;DHT22;11930;53.076;18.250;2023-06-14T06:03:33;17.10;99.90
23507;DHT22;11930;53.076;18.250;2023-06-14T06:05:59;17.20;99.90
23507;DHT22;11930;53.076;18.250;2023-06-14T06:08:27;17.20;99.90
23507;DHT22;11930;53.076;18.250;2023-06-14T06:10:53;17.30;99.90
23507;DHT22;11930;53.076;18.250;2023-06-14T06:13:19;17.30;99.90
23507;DHT22;11930;53.076;18.250;2023-06-14T06:15:45;17.30;99.90
23507;DHT22;11930;53.076;18.250;2023-06-14T06:18:11;17.40;99.90
23507;DHT22;11930;53.076;18.250;2023-06-14T06:20:37;17.40;99.90
23507;DHT22;11930;53.076;18.250;2023-06-14T06:23:04;17.40;99.90
23507;DHT22;11930;53.076;18.250;2023-06-14T06:25:29;17.50;99.90
23507;DHT22;11930;53.076;18.250;2023-06-14T06:27:58;17.50;99.90
23507;DHT22;11930;53.076;18.250;2023-06-14T06:30:24;17.60;99.90
23507;DHT22;11930;53.076;18.250;2023-06-14T06:32:51;17.60;99.90
23507;DHT22;11930;53.076;18.250;2023-06-14T06:35:17;17.60;99.90
23507;DHT22;11930;53.076;18.250;2023-06-14T06:37:43;17.70;99.90
23507;DHT22;11930;53.076;18.250;2023-06-14T06:40:09;17.70;99.90
23507;DHT22;11930;53.076;18.250;2023-06-14T06:42:36;17.70;99.90
23507;DHT22;11930;53.076;18.250;2023-06-14T06:45:05;17.80;99.90
23507;DHT22;11930;53.076;18.250;2023-06-14T06:47:31;17.80;99.90
23507;DHT22;11930;53.076;18.250;2023-06-14T06:49:57;17.80;99.90
23507;DHT22;11930;53.076;18.250;2023-06-14T06:52:23;17.70;99.90
23507;DHT22;11930;53.076;18.250;2023-06-14T06:54:49;17.60;99.90
23507;DHT22;11930;53.076;18.250;2023-06-14T06:57:16;17.50;99.90
23507;DHT22;11930;53.076;18.250;2023-06-14T06:59:42;17.40;99.90
23507;DHT22;11930;53.076;18.250;2023-06-14T07:02:08;17.30;99.90
23507;DHT22;11930;53.076;18.250;2023-06-14T07:04:34;17.10;99.90
23507;DHT22;11930;53.076;18.250;2023-06-14T07:07:00;17.00;99.90
23507;DHT22;11930;53.076;18.250;2023-06-14T07:09:26;16.80;99.90
23507;DHT22;11930;53.076;18.250;2023-06-14T07:11:53;16.80;99.90
23507;DHT22;11930;53.076;18.250;2023-06-14T07:14:19;16.80;99.90
23507;DHT22;11930;53.076;18.250;2023-06-14T07:16:45;16.80;99.90
23507;DHT22;11930;53.076;18.250;2023-06-14T07:19:12;16.90;99.90
23507;DHT22;11930;53.076;18.250;2023-06-14T07:21:38;16.90;99.90
23507;DHT22;11930;53.076;18.250;2023-06-14T07:24:05;17.10;99.90
23507;DHT22;11930;53.076;18.250;2023-06-14T07:26:32;17.20;99.90
23507;DHT22;11930;53.076;18.250;2023-06-14T07:28:58;17.40;99.90
23507;DHT22;11930;53.076;18.250;2023-06-14T07:31:24;17.40;99.90
23507;DHT22;11930;53.076;18.250;2023-06-14T07:33:50;17.60;99.90
23507;DHT22;11930;53.076;18.250;2023-06-14T07:36:16;17.70;99.90
23507;DHT22;11930;53.076;18.250;2023-06-14T07:38:43;17.90;99.90
23507;DHT22;11930;53.076;18.250;2023-06-14T07:41:10;18.00;99.90
23507;DHT22;11930;53.076;18.250;2023-06-14T07:43:36;18.30;99.90
23507;DHT22;11930;53.076;18.250;2023-06-14T07:46:02;18.40;99.90
23507;DHT22;11930;53.076;18.250;2023-06-14T07:48:28;18.60;99.90
23507;DHT22;11930;53.076;18.250;2023-06-14T07:50:54;18.80;99.90
23507;DHT22;11930;53.076;18.250;2023-06-14T07:53:21;18.90;99.90
23507;DHT22;11930;53.076;18.250;2023-06-14T07:55:47;19.40;99.90
23507;DHT22;11930;53.076;18.250;2023-06-14T07:58:14;19.40;99.90
23507;DHT22;11930;53.076;18.250;2023-06-14T08:00:40;19.80;99.90
23507;DHT22;11930;53.076;18.250;2023-06-14T08:03:06;20.20;99.90
23507;DHT22;11930;53.076;18.250;2023-06-14T08:05:32;20.60;99.90
23507;DHT22;11930;53.076;18.250;2023-06-14T08:07:58;20.90;99.90
23507;DHT22;11930;53.076;18.250;2023-06-14T08:10:24;21.10;99.90
23507;DHT22;11930;53.076;18.250;2023-06-14T08:12:50;21.20;99.90
23507;DHT22;11930;53.076;18.250;2023-06-14T08:15:17;21.30;99.90
23507;DHT22;11930;53.076;18.250;2023-06-14T08:17:44;21.30;99.90
23507;DHT22;11930;53.076;18.250;2023-06-14T08:20:12;21.40;99.90
23507;DHT22;11930;53.076;18.250;2023-06-14T08:22:38;21.30;99.90
23507;DHT22;11930;53.076;18.250;2023-06-14T08:25:05;21.20;99.90
23507;DHT22;11930;53.076;18.250;2023-06-14T08:27:32;21.10;99.90
23507;DHT22;11930;53.076;18.250;2023-06-14T08:29:58;21.00;99.90
23507;DHT22;11930;53.076;18.250;2023-06-14T08:32:24;21.00;99.90
23507;DHT22;11930;53.076;18.250;2023-06-14T08:34:50;21.00;99.90
23507;DHT22;11930;53.076;18.250;2023-06-14T08:37:16;20.90;99.90
23507;DHT22;11930;53.076;18.250;2023-06-14T08:39:42;21.00;99.90
23507;DHT22;11930;53.076;18.250;2023-06-14T08:42:09;21.00;99.90
23507;DHT22;11930;53.076;18.250;2023-06-14T08:44:37;21.10;99.90
23507;DHT22;11930;53.076;18.250;2023-06-14T08:47:03;21.20;99.80
23507;DHT22;11930;53.076;18.250;2023-06-14T08:49:31;21.20;99.90
23507;DHT22;11930;53.076;18.250;2023-06-14T08:52:00;21.00;99.90
23507;DHT22;11930;53.076;18.250;2023-06-14T08:54:29;20.70;99.20
23507;DHT22;11930;53.076;18.250;2023-06-14T08:56:57;20.40;99.90
23507;DHT22;11930;53.076;18.250;2023-06-14T08:59:27;20.30;99.90
23507;DHT22;11930;53.076;18.250;2023-06-14T09:01:54;20.20;99.90
23507;DHT22;11930;53.076;18.250;2023-06-14T09:04:21;20.20;99.90
23507;DHT22;11930;53.076;18.250;2023-06-14T09:06:56;20.20;99.90
23507;DHT22;11930;53.076;18.250;2023-06-14T09:09:22;20.20;99.90
23507;DHT22;11930;53.076;18.250;2023-06-14T09:11:50;20.30;99.90
23507;DHT22;11930;53.076;18.250;2023-06-14T09:14:18;20.30;99.90
23507;DHT22;11930;53.076;18.250;2023-06-14T09:16:44;20.40;99.90
23507;DHT22;11930;53.076;18.250;2023-06-14T09:19:21;20.50;99.90
23507;DHT22;11930;53.076;18.250;2023-06-14T09:21:48;20.60;99.90
23507;DHT22;11930;53.076;18.250;2023-06-14T09:24:14;23.20;99.90
23507;DHT22;11930;53.076;18.250;2023-06-14T09:26:40;21.10;99.90
23507;DHT22;11930;53.076;18.250;2023-06-14T09:29:07;21.30;99.90
23507;DHT22;11930;53.076;18.250;2023-06-14T09:31:32;21.60;99.90
23507;DHT22;11930;53.076;18.250;2023-06-14T09:34:02;21.80;99.60
23507;DHT22;11930;53.076;18.250;2023-06-14T09:36:28;22.10;99.80
23507;DHT22;11930;53.076;18.250;2023-06-14T09:38:56;22.30;99.90
23507;DHT22;11930;53.076;18.250;2023-06-14T09:41:39;22.60;98.30
23507;DHT22;11930;53.076;18.250;2023-06-14T09:44:07;22.90;95.70
23507;DHT22;11930;53.076;18.250;2023-06-14T09:46:35;23.10;86.40
23507;DHT22;11930;53.076;18.250;2023-06-14T09:49:03;23.30;86.80
23507;DHT22;11930;53.076;18.250;2023-06-14T09:51:30;23.50;89.60
23507;DHT22;11930;53.076;18.250;2023-06-14T09:54:03;23.70;86.00
23507;DHT22;11930;53.076;18.250;2023-06-14T09:56:42;24.00;81.60
23507;DHT22;11930;53.076;18.250;2023-06-14T09:59:10;24.10;79.90
23507;DHT22;11930;53.076;18.250;2023-06-14T10:01:42;24.20;78.10
23507;DHT22;11930;53.076;18.250;2023-06-14T10:04:09;24.20;75.90
23507;DHT22;11930;53.076;18.250;2023-06-14T10:06:37;24.00;74.10
23507;DHT22;11930;53.076;18.250;2023-06-14T10:09:08;23.90;74.10
23507;DHT22;11930;53.076;18.250;2023-06-14T10:11:36;23.60;73.60
23507;DHT22;11930;53.076;18.250;2023-06-14T10:14:05;23.10;72.20
23507;DHT22;11930;53.076;18.250;2023-06-14T10:16:37;22.60;74.60
23507;DHT22;11930;53.076;18.250;2023-06-14T10:19:11;22.20;77.40
23507;DHT22;11930;53.076;18.250;2023-06-14T10:21:50;21.90;82.10
23507;DHT22;11930;53.076;18.250;2023-06-14T10:24:20;21.60;83.50
23507;DHT22;11930;53.076;18.250;2023-06-14T10:26:58;21.40;84.10
23507;DHT22;11930;53.076;18.250;2023-06-14T10:29:26;21.30;85.30
23507;DHT22;11930;53.076;18.250;2023-06-14T10:31:56;21.20;87.10
23507;DHT22;11930;53.076;18.250;2023-06-14T10:34:27;21.20;87.80
23507;DHT22;11930;53.076;18.250;2023-06-14T10:37:12;21.20;88.50
23507;DHT22;11930;53.076;18.250;2023-06-14T10:39:40;21.30;90.90
23507;DHT22;11930;53.076;18.250;2023-06-14T10:42:07;21.50;91.80
23507;DHT22;11930;53.076;18.250;2023-06-14T10:44:39;21.70;91.30
23507;DHT22;11930;53.076;18.250;2023-06-14T10:47:11;21.70;87.50
23507;DHT22;11930;53.076;18.250;2023-06-14T10:49:50;21.90;91.60
23507;DHT22;11930;53.076;18.250;2023-06-14T10:52:16;22.00;90.40
23507;DHT22;11930;53.076;18.250;2023-06-14T10:55:11;22.10;86.90
23507;DHT22;11930;53.076;18.250;2023-06-14T10:57:43;22.40;84.20
23507;DHT22;11930;53.076;18.250;2023-06-14T11:00:10;22.80;85.40
23507;DHT22;11930;53.076;18.250;2023-06-14T11:11:17;23.80;70.50
23507;DHT22;11930;53.076;18.250;2023-06-14T11:13:45;23.70;66.00
23507;DHT22;11930;53.076;18.250;2023-06-14T11:16:16;23.40;68.10
23507;DHT22;11930;53.076;18.250;2023-06-14T11:18:44;23.10;70.70
23507;DHT22;11930;53.076;18.250;2023-06-14T11:21:10;22.90;71.80
23507;DHT22;11930;53.076;18.250;2023-06-14T11:23:37;22.80;72.10
23507;DHT22;11930;53.076;18.250;2023-06-14T11:26:03;22.70;71.70
23507;DHT22;11930;53.076;18.250;2023-06-14T11:28:37;22.80;63.20
23507;DHT22;11930;53.076;18.250;2023-06-14T11:31:04;22.70;64.30
23507;DHT22;11930;53.076;18.250;2023-06-14T11:33:30;22.70;62.30
23507;DHT22;11930;53.076;18.250;2023-06-14T11:35:56;22.80;65.60
23507;DHT22;11930;53.076;18.250;2023-06-14T11:38:22;22.80;61.10
23507;DHT22;11930;53.076;18.250;2023-06-14T11:40:48;23.00;59.90
23507;DHT22;11930;53.076;18.250;2023-06-14T11:43:14;23.20;57.60
23507;DHT22;11930;53.076;18.250;2023-06-14T11:45:40;23.30;56.80
23507;DHT22;11930;53.076;18.250;2023-06-14T11:48:06;23.20;56.60
23507;DHT22;11930;53.076;18.250;2023-06-14T11:50:37;23.20;57.10
23507;DHT22;11930;53.076;18.250;2023-06-14T11:53:04;23.10;58.30
23507;DHT22;11930;53.076;18.250;2023-06-14T11:55:39;23.20;60.20
23507;DHT22;11930;53.076;18.250;2023-06-14T11:58:06;23.00;64.30
23507;DHT22;11930;53.076;18.250;2023-06-14T12:00:34;22.90;63.00
23507;DHT22;11930;53.076;18.250;2023-06-14T12:03:01;22.70;64.00
23507;DHT22;11930;53.076;18.250;2023-06-14T12:05:27;22.50;64.40
23507;DHT22;11930;53.076;18.250;2023-06-14T12:08:03;22.30;64.90
23507;DHT22;11930;53.076;18.250;2023-06-14T12:10:40;22.00;63.70
23507;DHT22;11930;53.076;18.250;2023-06-14T12:13:06;21.90;64.90
23507;DHT22;11930;53.076;18.250;2023-06-14T12:15:33;21.70;65.80
23507;DHT22;11930;53.076;18.250;2023-06-14T12:17:59;21.50;66.50
23507;DHT22;11930;53.076;18.250;2023-06-14T12:20:29;21.30;66.80
23507;DHT22;11930;53.076;18.250;2023-06-14T12:22:59;21.20;66.70
23507;DHT22;11930;53.076;18.250;2023-06-14T12:25:31;21.10;67.90
23507;DHT22;11930;53.076;18.250;2023-06-14T12:27:59;21.00;67.10
23507;DHT22;11930;53.076;18.250;2023-06-14T12:30:26;20.90;65.90
23507;DHT22;11930;53.076;18.250;2023-06-14T12:32:52;20.90;67.10
23507;DHT22;11930;53.076;18.250;2023-06-14T12:35:18;20.80;65.10
23507;DHT22;11930;53.076;18.250;2023-06-14T12:37:45;20.80;66.10
23507;DHT22;11930;53.076;18.250;2023-06-14T12:40:12;20.80;66.30
23507;DHT22;11930;53.076;18.250;2023-06-14T12:42:38;20.80;67.50
23507;DHT22;11930;53.076;18.250;2023-06-14T12:45:04;20.80;67.70
23507;DHT22;11930;53.076;18.250;2023-06-14T12:47:31;20.80;68.60
23507;DHT22;11930;53.076;18.250;2023-06-14T12:49:57;20.80;70.10
23507;DHT22;11930;53.076;18.250;2023-06-14T12:52:23;20.80;72.00
23507;DHT22;11930;53.076;18.250;2023-06-14T12:54:49;20.70;73.00
23507;DHT22;11930;53.076;18.250;2023-06-14T12:57:15;20.70;73.60
23507;DHT22;11930;53.076;18.250;2023-06-14T12:59:42;20.70;75.70
23507;DHT22;11930;53.076;18.250;2023-06-14T13:02:16;20.60;77.40
23507;DHT22;11930;53.076;18.250;2023-06-14T13:04:43;20.60;79.20
23507;DHT22;11930;53.076;18.250;2023-06-14T13:07:09;20.60;77.90
23507;DHT22;11930;53.076;18.250;2023-06-14T13:09:37;20.70;76.40
23507;DHT22;11930;53.076;18.250;2023-06-14T13:12:03;20.70;77.10
23507;DHT22;11930;53.076;18.250;2023-06-14T13:14:29;20.70;75.10
23507;DHT22;11930;53.076;18.250;2023-06-14T13:16:55;20.80;74.30
23507;DHT22;11930;53.076;18.250;2023-06-14T13:19:22;20.80;74.70
23507;DHT22;11930;53.076;18.250;2023-06-14T13:21:48;20.80;75.40
23507;DHT22;11930;53.076;18.250;2023-06-14T13:24:14;20.80;73.60
23507;DHT22;11930;53.076;18.250;2023-06-14T13:26:41;20.80;76.10
23507;DHT22;11930;53.076;18.250;2023-06-14T13:29:07;20.80;75.50
23507;DHT22;11930;53.076;18.250;2023-06-14T13:31:33;20.80;76.40
23507;DHT22;11930;53.076;18.250;2023-06-14T13:33:59;20.80;77.10
23507;DHT22;11930;53.076;18.250;2023-06-14T13:36:25;20.80;72.10
23507;DHT22;11930;53.076;18.250;2023-06-14T13:38:51;20.70;72.60
23507;DHT22;11930;53.076;18.250;2023-06-14T13:41:18;20.60;70.90
23507;DHT22;11930;53.076;18.250;2023-06-14T13:43:44;20.60;74.00
23507;DHT22;11930;53.076;18.250;2023-06-14T13:46:11;20.60;75.20
23507;DHT22;11930;53.076;18.250;2023-06-14T13:48:37;20.60;75.10
23507;DHT22;11930;53.076;18.250;2023-06-14T13:51:03;20.50;70.20
23507;DHT22;11930;53.076;18.250;2023-06-14T13:53:30;20.50;73.00
23507;DHT22;11930;53.076;18.250;2023-06-14T13:55:56;20.40;68.10
23507;DHT22;11930;53.076;18.250;2023-06-14T13:58:23;20.40;68.40
23507;DHT22;11930;53.076;18.250;2023-06-14T14:00:49;20.30;70.20
23507;DHT22;11930;53.076;18.250;2023-06-14T14:03:16;20.30;68.50
23507;DHT22;11930;53.076;18.250;2023-06-14T14:05:42;20.20;68.30
23507;DHT22;11930;53.076;18.250;2023-06-14T14:08:08;20.20;70.10
23507;DHT22;11930;53.076;18.250;2023-06-14T14:10:34;20.10;69.30
23507;DHT22;11930;53.076;18.250;2023-06-14T14:13:00;20.10;69.20
23507;DHT22;11930;53.076;18.250;2023-06-14T14:15:27;20.00;68.60
23507;DHT22;11930;53.076;18.250;2023-06-14T14:17:55;20.00;71.40
23507;DHT22;11930;53.076;18.250;2023-06-14T14:20:23;19.90;73.30
23507;DHT22;11930;53.076;18.250;2023-06-14T14:22:49;19.90;71.80
23507;DHT22;11930;53.076;18.250;2023-06-14T14:25:15;19.80;74.40
23507;DHT22;11930;53.076;18.250;2023-06-14T14:27:41;19.70;77.70
23507;DHT22;11930;53.076;18.250;2023-06-14T14:30:08;19.70;76.60
23507;DHT22;11930;53.076;18.250;2023-06-14T14:32:35;19.50;76.60
23507;DHT22;11930;53.076;18.250;2023-06-14T14:35:03;19.30;75.70
23507;DHT22;11930;53.076;18.250;2023-06-14T14:37:29;19.20;79.60
23507;DHT22;11930;53.076;18.250;2023-06-14T14:39:55;19.00;82.10
23507;DHT22;11930;53.076;18.250;2023-06-14T14:42:21;18.90;82.80
23507;DHT22;11930;53.076;18.250;2023-06-14T14:44:47;18.70;83.40
23507;DHT22;11930;53.076;18.250;2023-06-14T14:47:13;18.60;87.60
23507;DHT22;11930;53.076;18.250;2023-06-14T14:49:39;18.50;90.70
23507;DHT22;11930;53.076;18.250;2023-06-14T14:52:06;18.40;93.60
23507;DHT22;11930;53.076;18.250;2023-06-14T14:54:32;18.30;96.90
23507;DHT22;11930;53.076;18.250;2023-06-14T14:56:58;18.20;99.60
23507;DHT22;11930;53.076;18.250;2023-06-14T14:59:24;18.10;99.90
23507;DHT22;11930;53.076;18.250;2023-06-14T15:01:50;18.00;99.90
23507;DHT22;11930;53.076;18.250;2023-06-14T15:04:17;17.90;99.90
23507;DHT22;11930;53.076;18.250;2023-06-14T15:06:43;17.80;99.90
23507;DHT22;11930;53.076;18.250;2023-06-14T15:09:09;17.50;99.90
23507;DHT22;11930;53.076;18.250;2023-06-14T15:11:36;17.50;99.90
23507;DHT22;11930;53.076;18.250;2023-06-14T15:14:01;17.40;99.90
23507;DHT22;11930;53.076;18.250;2023-06-14T15:16:28;17.40;99.90
23507;DHT22;11930;53.076;18.250;2023-06-14T15:18:55;17.30;99.90
23507;DHT22;11930;53.076;18.250;2023-06-14T15:21:21;17.30;99.90
23507;DHT22;11930;53.076;18.250;2023-06-14T15:23:48;17.20;99.90
23507;DHT22;11930;53.076;18.250;2023-06-14T15:26:16;17.20;99.90
23507;DHT22;11930;53.076;18.250;2023-06-14T15:28:42;17.10;99.90
23507;DHT22;11930;53.076;18.250;2023-06-14T15:31:09;16.90;99.90